Time;durP1;ratioP1;P1;durP2;ratioP2;P2;SDS_P1;SDS_P2;PMS_P1;PMS_P2;Temp;Humidity;BMP_temperature;BMP_pressure;BME280_temperature;BME280_humidity;BME280_pressure;Samples;Min_cycle;Max_cycle;Signal;HPM_P1;HPM_P2
2023/03/26 00:00:15;;;;;;;26.90;4.43;;;;;;;;;;4995053;28;92334;-72
2023/03/26 00:02:41;;;;;;;28.33;3.67;;;;;;;;;;4992656;28;93024;-73
2023/03/26 00:05:08;;;;;;;25.83;3.70;;;;;;;;;;4993161;28;92729;-72
2023/03/26 00:07:34;;;;;;;24.05;3.90;;;;;;;;;;4987619;28;93327;-72
2023/03/26 00:10:00;;;;;;;27.02;3.63;;;;;;;;;;4986972;28;96937;-72
2023/03/26 00:12:27;;;;;;;21.80;4.10;;;;;;;;;;4992431;28;95610;-72
2023/03/26 00:14:53;;;;;;;28.63;3.90;;;;;;;;;;4992956;28;93595;-72
2023/03/26 00:17:20;;;;;;;21.58;3.55;;;;;;;;;;4996284;28;92545;-72
2023/03/26 00:19:46;;;;;;;36.28;7.93;;;;;;;;;;4993958;28;93281;-72
2023/03/26 00:22:13;;;;;;;27.38;4.38;;;;;;;;;;4990867;28;93531;-72
2023/03/26 00:24:39;;;;;;;20.67;3.83;;;;;;;;;;4978059;28;92756;-72
2023/03/26 00:27:07;;;;;;;32.25;4.30;;;;;;;;;;4990265;28;93130;-72
2023/03/26 00:29:34;;;;;;;32.33;4.80;;;;;;;;;;4995078;28;92439;-72
2023/03/26 00:32:01;;;;;;;30.95;5.20;;;;;;;;;;4984245;28;92497;-72
2023/03/26 00:34:27;;;;;;;26.65;3.97;;;;;;;;;;4977770;28;95506;-71
2023/03/26 00:36:53;;;;;;;27.25;3.67;;;;;;;;;;4976976;28;92471;-71
2023/03/26 00:39:22;;;;;;;34.10;6.05;;;;;;;;;;4977469;28;93217;-71
2023/03/26 00:41:52;;;;;;;27.95;4.15;;;;;;;;;;4976924;28;93479;-71
2023/03/26 00:44:19;;;;;;;27.13;4.10;;;;;;;;;;4977154;28;92468;-71
2023/03/26 00:46:46;;;;;;;29.40;4.68;;;;;;;;;;4980200;28;93253;-72
2023/03/26 00:49:13;;;;;;;29.83;4.72;;;;;;;;;;4996970;28;92392;-72
2023/03/26 00:51:40;;;;;;;35.03;5.35;;;;;;;;;;4989404;28;91764;-72
2023/03/26 00:54:07;;;;;;;31.77;4.50;;;;;;;;;;4984699;28;92819;-72
2023/03/26 00:56:33;;;;;;;35.95;5.15;;;;;;;;;;4983284;28;92810;-71
2023/03/26 00:59:00;;;;;;;47.25;5.88;;;;;;;;;;4990668;28;95084;-72
2023/03/26 01:01:27;;;;;;;34.83;5.00;;;;;;;;;;5002681;28;93432;-72
2023/03/26 01:03:57;;;;;;;38.70;6.88;;;;;;;;;;4992104;28;93881;-72
2023/03/26 01:06:36;;;;;;;42.95;5.47;;;;;;;;;;4994872;28;93872;-71
2023/03/26 01:09:22;;;;;;;41.88;6.35;;;;;;;;;;4986410;28;93762;-72
2023/03/26 01:11:49;;;;;;;67.70;8.27;;;;;;;;;;4988488;28;92442;-72
2023/03/26 01:14:20;;;;;;;47.50;6.45;;;;;;;;;;4993873;28;93487;-72
2023/03/26 01:16:50;;;;;;;45.85;7.05;;;;;;;;;;4982968;28;91721;-72
2023/03/26 01:19:21;;;;;;;49.17;7.18;;;;;;;;;;4994014;28;92955;-71
2023/03/26 01:21:48;;;;;;;42.35;6.95;;;;;;;;;;4991259;28;93788;-72
2023/03/26 01:24:14;;;;;;;57.17;7.47;;;;;;;;;;4985200;28;96021;-72
2023/03/26 01:26:46;;;;;;;48.25;7.45;;;;;;;;;;4984234;28;95579;-72
2023/03/26 01:29:20;;;;;;;61.53;8.57;;;;;;;;;;4992122;28;94062;-72
2023/03/26 01:32:02;;;;;;;55.85;8.00;;;;;;;;;;4996135;28;92890;-72
2023/03/26 01:34:29;;;;;;;67.68;8.20;;;;;;;;;;4995169;28;94417;-72
2023/03/26 01:37:07;;;;;;;65.05;7.55;;;;;;;;;;4998647;28;93823;-72
2023/03/26 01:39:41;;;;;;;62.70;7.93;;;;;;;;;;4994885;28;92534;-72
2023/03/26 01:42:14;;;;;;;56.80;7.68;;;;;;;;;;4995484;28;92494;-72
2023/03/26 01:44:45;;;;;;;69.75;7.43;;;;;;;;;;4995856;28;92477;-72
2023/03/26 01:47:12;;;;;;;53.28;7.40;;;;;;;;;;4996021;28;93484;-72
2023/03/26 01:49:39;;;;;;;66.82;8.32;;;;;;;;;;4994009;28;95985;-71
2023/03/26 01:52:11;;;;;;;62.08;8.18;;;;;;;;;;4981836;28;92908;-72
2023/03/26 01:54:37;;;;;;;60.50;8.23;;;;;;;;;;4974344;28;93176;-72
2023/03/26 01:57:10;;;;;;;55.92;7.22;;;;;;;;;;4975560;28;93662;-72
2023/03/26 01:59:42;;;;;;;63.17;8.63;;;;;;;;;;4992454;28;93067;-71
2023/03/26 02:02:27;;;;;;;61.92;8.80;;;;;;;;;;4985356;28;94212;-71
2023/03/26 02:04:53;;;;;;;61.95;8.38;;;;;;;;;;4990135;28;93701;-71
2023/03/26 02:07:27;;;;;;;67.40;9.23;;;;;;;;;;4994627;28;93144;-71
2023/03/26 02:09:57;;;;;;;79.82;8.25;;;;;;;;;;4983017;28;93752;-71
2023/03/26 02:12:23;;;;;;;73.77;9.20;;;;;;;;;;4994076;28;92568;-71
2023/03/26 02:14:50;;;;;;;67.32;8.30;;;;;;;;;;4981927;28;95100;-72
2023/03/26 02:17:17;;;;;;;67.32;7.78;;;;;;;;;;4975384;28;93489;-72
2023/03/26 02:19:44;;;;;;;68.07;9.73;;;;;;;;;;4982056;28;92481;-71
2023/03/26 02:22:14;;;;;;;56.83;7.57;;;;;;;;;;4987829;28;93590;-72
2023/03/26 02:24:41;;;;;;;73.15;9.07;;;;;;;;;;4980985;28;92658;-72
2023/03/26 02:27:08;;;;;;;64.72;8.32;;;;;;;;;;4979497;28;93186;-72
2023/03/26 02:29:38;;;;;;;78.07;9.45;;;;;;;;;;4980767;28;94487;-71
2023/03/26 02:32:05;;;;;;;70.57;8.23;;;;;;;;;;4988367;28;92038;-72
2023/03/26 02:34:32;;;;;;;67.43;9.55;;;;;;;;;;4991333;28;92448;-71
2023/03/26 02:36:58;;;;;;;67.95;8.65;;;;;;;;;;4992149;28;93758;-72
2023/03/26 02:39:25;;;;;;;71.57;8.30;;;;;;;;;;4976340;28;95503;-72
2023/03/26 02:41:51;;;;;;;72.60;9.50;;;;;;;;;;4976258;28;95534;-72
2023/03/26 02:44:18;;;;;;;60.35;8.50;;;;;;;;;;4987079;28;95740;-71
2023/03/26 02:46:44;;;;;;;59.92;8.88;;;;;;;;;;4977321;28;93052;-72
2023/03/26 02:49:11;;;;;;;58.33;8.52;;;;;;;;;;4994026;28;94385;-72
2023/03/26 02:51:37;;;;;;;67.18;8.40;;;;;;;;;;4986758;28;92474;-72
2023/03/26 02:54:03;;;;;;;64.57;7.97;;;;;;;;;;4984418;28;93579;-71
2023/03/26 02:56:30;;;;;;;64.55;8.38;;;;;;;;;;4974240;28;92777;-72
2023/03/26 02:58:56;;;;;;;68.20;8.60;;;;;;;;;;4981635;28;93646;-72
2023/03/26 03:01:23;;;;;;;52.13;8.60;;;;;;;;;;4985753;28;93218;-72
2023/03/26 03:03:49;;;;;;;65.80;9.63;;;;;;;;;;4989641;28;96107;-72
2023/03/26 03:06:17;;;;;;;62.35;8.93;;;;;;;;;;4996223;28;92439;-72
2023/03/26 03:08:47;;;;;;;78.72;11.30;;;;;;;;;;4975669;28;93416;-71
2023/03/26 03:11:15;;;;;;;51.97;9.60;;;;;;;;;;5006646;28;92575;-72
2023/03/26 03:13:42;;;;;;;72.13;11.70;;;;;;;;;;4986554;28;93550;-72
2023/03/26 03:16:09;;;;;;;64.75;9.80;;;;;;;;;;4992598;28;93839;-73
2023/03/26 03:18:36;;;;;;;65.68;10.55;;;;;;;;;;4985478;28;92536;-72
2023/03/26 03:21:03;;;;;;;56.50;10.23;;;;;;;;;;4988577;28;93399;-72
2023/03/26 03:23:30;;;;;;;63.75;10.27;;;;;;;;;;4981671;28;96804;-73
2023/03/26 03:25:56;;;;;;;72.55;11.93;;;;;;;;;;4989375;28;92545;-72
2023/03/26 03:28:23;;;;;;;48.88;10.85;;;;;;;;;;4974677;28;96040;-73
2023/03/26 03:30:56;;;;;;;67.85;11.70;;;;;;;;;;4987549;28;93910;-72
2023/03/26 03:33:22;;;;;;;62.67;12.23;;;;;;;;;;4985190;28;94203;-72
2023/03/26 03:35:49;;;;;;;60.97;11.70;;;;;;;;;;4992779;28;95912;-72
2023/03/26 03:38:16;;;;;;;62.15;11.15;;;;;;;;;;4980601;28;93885;-72
2023/03/26 03:40:42;;;;;;;60.33;11.57;;;;;;;;;;4973784;28;93236;-72
2023/03/26 03:43:09;;;;;;;72.78;12.60;;;;;;;;;;4977568;28;94696;-72
2023/03/26 03:45:35;;;;;;;65.35;12.75;;;;;;;;;;4983312;28;92038;-71
2023/03/26 03:48:02;;;;;;;82.60;13.18;;;;;;;;;;4979655;28;94737;-72
2023/03/26 03:50:28;;;;;;;62.05;11.90;;;;;;;;;;4991295;28;93132;-72
2023/03/26 03:52:54;;;;;;;51.25;11.73;;;;;;;;;;4989251;28;94850;-72
2023/03/26 03:55:22;;;;;;;57.53;10.38;;;;;;;;;;4992924;28;93449;-73
2023/03/26 03:57:51;;;;;;;77.88;13.90;;;;;;;;;;4989535;28;92477;-73
2023/03/26 04:00:17;;;;;;;70.32;11.32;;;;;;;;;;4976059;28;93624;-73
2023/03/26 04:02:44;;;;;;;59.13;11.13;;;;;;;;;;4988055;28;93745;-72
2023/03/26 04:05:11;;;;;;;60.50;11.40;;;;;;;;;;4987507;28;93988;-72
2023/03/26 04:07:38;;;;;;;56.80;11.20;;;;;;;;;;4982743;28;93208;-72
2023/03/26 04:10:05;;;;;;;60.00;12.00;;;;;;;;;;4981822;28;93161;-72
2023/03/26 04:12:31;;;;;;;67.07;12.38;;;;;;;;;;4984579;28;92471;-72
2023/03/26 04:14:58;;;;;;;57.00;11.88;;;;;;;;;;4990389;28;95650;-72
2023/03/26 04:17:24;;;;;;;63.83;11.60;;;;;;;;;;4988347;28;95830;-72
2023/03/26 04:19:53;;;;;;;62.42;12.68;;;;;;;;;;4990378;28;95610;-73
2023/03/26 04:22:20;;;;;;;54.30;11.48;;;;;;;;;;4989091;28;94566;-73
2023/03/26 04:24:48;;;;;;;68.47;11.88;;;;;;;;;;4991693;28;92886;-73
2023/03/26 04:27:19;;;;;;;69.25;12.77;;;;;;;;;;4981728;28;93108;-73
2023/03/26 04:29:48;;;;;;;51.00;10.85;;;;;;;;;;4980691;28;92519;-73
2023/03/26 04:32:23;;;;;;;63.88;12.68;;;;;;;;;;4992338;28;92716;-73
2023/03/26 04:34:49;;;;;;;64.63;13.65;;;;;;;;;;4991306;28;93663;-74
2023/03/26 04:37:21;;;;;;;58.65;13.68;;;;;;;;;;4987173;28;92540;-74
2023/03/26 04:39:48;;;;;;;61.42;14.30;;;;;;;;;;4975691;28;93856;-74
2023/03/26 04:42:18;;;;;;;61.13;12.93;;;;;;;;;;4974488;28;95952;-73
2023/03/26 04:44:49;;;;;;;61.17;13.73;;;;;;;;;;4984039;28;92677;-73
2023/03/26 04:47:15;;;;;;;;;;;;;;;;;;4992037;28;94206;-70
2023/03/26 04:49:42;;;;;;;73.75;12.60;;;;;;;;;;4994131;28;124177;-72
2023/03/26 04:52:12;;;;;;;70.68;13.38;;;;;;;;;;4979583;28;92469;-72
2023/03/26 04:54:38;;;;;;;62.53;12.93;;;;;;;;;;4993846;28;94249;-72
2023/03/26 04:57:08;;;;;;;56.05;11.95;;;;;;;;;;4986407;28;92508;-72
2023/03/26 04:59:34;;;;;;;61.03;12.35;;;;;;;;;;4990059;28;93566;-72
2023/03/26 05:02:01;;;;;;;69.25;15.02;;;;;;;;;;4985293;28;94002;-73
2023/03/26 05:04:32;;;;;;;62.53;13.00;;;;;;;;;;4990798;28;93144;-72
2023/03/26 05:06:59;;;;;;;55.67;12.02;;;;;;;;;;4990000;28;96024;-72
2023/03/26 05:09:26;;;;;;;68.95;12.80;;;;;;;;;;4994506;28;93430;-72
2023/03/26 05:11:52;;;;;;;61.63;12.80;;;;;;;;;;4977536;28;92561;-72
2023/03/26 05:14:19;;;;;;;66.20;12.50;;;;;;;;;;4996572;28;93234;-72
2023/03/26 05:16:46;;;;;;;55.63;12.63;;;;;;;;;;4980111;28;92711;-72
2023/03/26 05:19:12;;;;;;;62.45;13.63;;;;;;;;;;4994656;28;93209;-71
2023/03/26 05:21:39;;;;;;;71.00;13.65;;;;;;;;;;4990552;28;93739;-72
2023/03/26 05:24:05;;;;;;;73.00;15.10;;;;;;;;;;4992982;28;91993;-72
2023/03/26 05:26:32;;;;;;;67.35;13.93;;;;;;;;;;4992703;28;93538;-72
2023/03/26 05:28:59;;;;;;;68.35;13.05;;;;;;;;;;4990957;28;93403;-72
2023/03/26 05:31:30;;;;;;;65.10;13.65;;;;;;;;;;4984505;28;95831;-72
2023/03/26 05:33:57;;;;;;;59.90;13.23;;;;;;;;;;4989848;28;95770;-72
2023/03/26 05:36:23;;;;;;;71.05;14.35;;;;;;;;;;4987362;28;94119;-72
2023/03/26 05:38:51;;;;;;;67.65;14.20;;;;;;;;;;4979067;28;93236;-72
2023/03/26 05:41:17;;;;;;;74.18;16.35;;;;;;;;;;4986609;28;93291;-72
2023/03/26 05:43:44;;;;;;;56.63;11.98;;;;;;;;;;4991071;28;92535;-72
2023/03/26 05:46:11;;;;;;;65.60;14.60;;;;;;;;;;4994716;28;93214;-73
2023/03/26 05:48:38;;;;;;;70.22;12.77;;;;;;;;;;4982799;28;92540;-72
2023/03/26 05:51:04;;;;;;;70.00;14.20;;;;;;;;;;4992696;28;92431;-72
2023/03/26 05:53:31;;;;;;;55.75;13.32;;;;;;;;;;4985526;28;93235;-72
2023/03/26 05:55:57;;;;;;;57.40;11.95;;;;;;;;;;4972530;28;96000;-72
2023/03/26 05:58:27;;;;;;;61.97;13.05;;;;;;;;;;4981535;28;92523;-73
2023/03/26 06:01:19;;;;;;;59.67;11.73;;;;;;;;;;4994602;28;93397;-73
2023/03/26 06:03:46;;;;;;;65.72;12.27;;;;;;;;;;4993281;28;92456;-72
2023/03/26 06:06:15;;;;;;;59.58;11.43;;;;;;;;;;4988216;28;94160;-73
2023/03/26 06:08:48;;;;;;;63.40;12.23;;;;;;;;;;4993422;28;93459;-73
2023/03/26 06:11:27;;;;;;;63.45;12.98;;;;;;;;;;5003298;28;92445;-72
2023/03/26 06:13:54;;;;;;;65.15;12.85;;;;;;;;;;4993664;28;94247;-72
2023/03/26 06:16:20;;;;;;;62.75;12.60;;;;;;;;;;4988985;28;93423;-73
2023/03/26 06:18:53;;;;;;;66.97;11.80;;;;;;;;;;4993710;28;92477;-73
2023/03/26 06:21:23;;;;;;;54.42;11.82;;;;;;;;;;4995800;28;95016;-73
2023/03/26 06:23:50;;;;;;;57.55;11.68;;;;;;;;;;4986791;28;92817;-73
2023/03/26 06:26:17;;;;;;;65.22;11.80;;;;;;;;;;4993861;28;93173;-73
2023/03/26 06:28:43;;;;;;;61.33;10.98;;;;;;;;;;4986099;28;93507;-73
2023/03/26 06:31:09;;;;;;;57.55;10.52;;;;;;;;;;4983552;28;92470;-73
2023/03/26 06:33:36;;;;;;;52.83;9.93;;;;;;;;;;4986788;28;93378;-73
2023/03/26 06:36:02;;;;;;;47.45;8.57;;;;;;;;;;4977942;28;93975;-73
2023/03/26 06:38:29;;;;;;;50.28;10.85;;;;;;;;;;4991750;28;92154;-73
2023/03/26 06:41:00;;;;;;;57.38;10.43;;;;;;;;;;4988971;28;92585;-72
2023/03/26 06:43:27;;;;;;;55.72;10.20;;;;;;;;;;4988445;28;93580;-72
2023/03/26 06:45:53;;;;;;;55.65;9.70;;;;;;;;;;4987991;28;94920;-72
2023/03/26 06:48:19;;;;;;;57.35;11.40;;;;;;;;;;4992238;28;94728;-72
2023/03/26 06:50:46;;;;;;;51.97;10.35;;;;;;;;;;4979854;28;92504;-72
2023/03/26 06:53:12;;;;;;;54.17;9.50;;;;;;;;;;4982339;28;93780;-72
2023/03/26 06:55:38;;;;;;;53.60;9.77;;;;;;;;;;4989011;28;93774;-72
2023/03/26 06:58:04;;;;;;;54.95;8.73;;;;;;;;;;4990374;28;93167;-72
2023/03/26 07:00:31;;;;;;;49.35;7.70;;;;;;;;;;4977501;28;93597;-72
2023/03/26 07:02:57;;;;;;;45.17;7.38;;;;;;;;;;4979177;28;93713;-71
2023/03/26 07:05:24;;;;;;;35.42;7.72;;;;;;;;;;4994647;28;93983;-72
2023/03/26 07:07:50;;;;;;;48.33;8.60;;;;;;;;;;4983908;28;94456;-72
2023/03/26 07:10:16;;;;;;;47.15;8.43;;;;;;;;;;4981296;28;96045;-72
2023/03/26 07:12:43;;;;;;;53.83;7.65;;;;;;;;;;4990656;28;95923;-72
2023/03/26 07:15:09;;;;;;;49.70;8.50;;;;;;;;;;4991632;28;94908;-72
2023/03/26 07:17:36;;;;;;;51.80;8.07;;;;;;;;;;4990639;28;93363;-72
2023/03/26 07:20:03;;;;;;;59.83;8.18;;;;;;;;;;4991291;28;93348;-72
2023/03/26 07:22:29;;;;;;;51.95;8.75;;;;;;;;;;4985953;28;94777;-73
2023/03/26 07:24:56;;;;;;;53.50;9.20;;;;;;;;;;4997442;28;92439;-72
2023/03/26 07:27:41;;;;;;;54.80;9.15;;;;;;;;;;4990007;28;93155;-72
2023/03/26 07:30:10;;;;;;;55.80;11.15;;;;;;;;;;4981464;28;92700;-73
2023/03/26 07:32:36;;;;;;;62.58;9.75;;;;;;;;;;4982366;28;94379;-73
2023/03/26 07:35:21;;;;;;;51.72;9.13;;;;;;;;;;4981233;28;96025;-72
2023/03/26 07:38:00;;;;;;;53.35;9.45;;;;;;;;;;4993206;28;92529;-70
2023/03/26 07:40:39;;;;;;;53.85;8.52;;;;;;;;;;4980771;28;94573;-70
2023/03/26 07:43:23;;;;;;;70.75;16.10;;;;;;;;;;4974120;28;94544;-70
2023/03/26 07:45:49;;;;;;;54.58;11.27;;;;;;;;;;4984013;28;92484;-70
2023/03/26 07:48:17;;;;;;;56.90;10.13;;;;;;;;;;4994450;28;93146;-70
2023/03/26 07:50:44;;;;;;;55.33;10.60;;;;;;;;;;4993679;28;92476;-70
2023/03/26 07:53:10;;;;;;;68.40;10.57;;;;;;;;;;4992342;28;94558;-70
2023/03/26 07:55:45;;;;;;;58.03;15.18;;;;;;;;;;4991334;28;93391;-70
2023/03/26 07:58:30;;;;;;;62.38;11.43;;;;;;;;;;4991982;28;92576;-70
2023/03/26 08:01:05;;;;;;;53.22;10.70;;;;;;;;;;4982351;28;95053;-70
2023/03/26 08:03:43;;;;;;;54.95;10.85;;;;;;;;;;4987901;28;93413;-70
2023/03/26 08:06:15;;;;;;;56.70;12.50;;;;;;;;;;4993029;28;92480;-70
2023/03/26 08:08:57;;;;;;;58.03;12.23;;;;;;;;;;4992843;28;93729;-70
2023/03/26 08:11:36;;;;;;;58.38;15.10;;;;;;;;;;4996035;28;94542;-70
2023/03/26 08:14:21;;;;;;;48.03;10.82;;;;;;;;;;4992862;28;93396;-70
2023/03/26 08:16:52;;;;;;;40.03;10.45;;;;;;;;;;4992950;28;92429;-70
2023/03/26 08:19:37;;;;;;;61.13;18.48;;;;;;;;;;4992834;28;91702;-70
2023/03/26 08:22:26;;;;;;;72.55;19.83;;;;;;;;;;4992868;28;94002;-70
2023/03/26 08:25:15;;;;;;;130.82;55.72;;;;;;;;;;4991285;28;92490;-70
2023/03/26 08:28:03;;;;;;;53.30;18.05;;;;;;;;;;4991037;28;94886;-70
2023/03/26 08:30:29;;;;;;;61.63;13.18;;;;;;;;;;4992590;28;94436;-70
2023/03/26 08:32:58;;;;;;;46.83;12.55;;;;;;;;;;4992282;28;93488;-70
2023/03/26 08:35:26;;;;;;;59.22;13.55;;;;;;;;;;4996838;28;92447;-70
2023/03/26 08:37:52;;;;;;;62.63;15.57;;;;;;;;;;4996127;28;93380;-70
2023/03/26 08:40:35;;;;;;;66.75;17.70;;;;;;;;;;4995598;28;92448;-70
2023/03/26 08:43:20;;;;;;;53.55;13.73;;;;;;;;;;4996241;28;93708;-70
2023/03/26 08:45:53;;;;;;;51.38;12.32;;;;;;;;;;4996305;28;92856;-70
2023/03/26 08:48:38;;;;;;;63.20;14.20;;;;;;;;;;4996154;28;92590;-70
2023/03/26 08:51:04;;;;;;;60.97;13.13;;;;;;;;;;4995977;28;93185;-71
2023/03/26 08:53:49;;;;;;;57.58;11.63;;;;;;;;;;4987127;28;96648;-71
2023/03/26 08:56:15;;;;;;;52.75;11.93;;;;;;;;;;4986126;28;92532;-70
2023/03/26 08:58:54;;;;;;;57.20;11.32;;;;;;;;;;4992871;28;93210;-71
2023/03/26 09:01:29;;;;;;;58.58;13.05;;;;;;;;;;4987892;28;93026;-70
2023/03/26 09:04:14;;;;;;;57.45;12.80;;;;;;;;;;4998301;28;93285;-70
2023/03/26 09:07:00;;;;;;;48.83;11.02;;;;;;;;;;4977163;28;94093;-71
2023/03/26 09:09:45;;;;;;;50.63;12.52;;;;;;;;;;4994925;28;92515;-71
2023/03/26 09:12:17;;;;;;;50.65;13.18;;;;;;;;;;4994040;28;94352;-71
2023/03/26 09:15:01;;;;;;;53.97;14.00;;;;;;;;;;4995727;28;93206;-71
2023/03/26 09:17:36;;;;;;;49.20;13.40;;;;;;;;;;4995481;28;92540;-71
2023/03/26 09:20:21;;;;;;;48.33;14.38;;;;;;;;;;4986778;28;95250;-71
2023/03/26 09:23:13;;;;;;;59.20;17.20;;;;;;;;;;4997028;28;93949;-70
2023/03/26 09:25:59;;;;;;;62.83;17.90;;;;;;;;;;4992722;28;93585;-71
2023/03/26 09:28:28;;;;;;;66.50;18.45;;;;;;;;;;4989708;28;93659;-71
2023/03/26 09:30:55;;;;;;;50.35;16.73;;;;;;;;;;4990399;28;92572;-71
2023/03/26 09:33:24;;;;;;;63.13;17.25;;;;;;;;;;4975779;28;93428;-71
2023/03/26 09:36:13;;;;;;;62.95;18.90;;;;;;;;;;4981383;28;93454;-71
2023/03/26 09:38:43;;;;;;;64.50;17.70;;;;;;;;;;4971027;28;91855;-70
2023/03/26 09:41:17;;;;;;;50.50;16.10;;;;;;;;;;4971671;28;92771;-70
2023/03/26 09:44:02;;;;;;;47.67;14.77;;;;;;;;;;4975301;28;93525;-70
2023/03/26 09:46:31;;;;;;;50.03;15.40;;;;;;;;;;4963741;28;95007;-70
2023/03/26 09:49:00;;;;;;;52.67;15.02;;;;;;;;;;4970890;28;93673;-70
2023/03/26 09:51:47;;;;;;;53.30;14.93;;;;;;;;;;4966730;28;92515;-70
2023/03/26 09:54:25;;;;;;;53.75;15.73;;;;;;;;;;4953940;28;92993;-70
2023/03/26 09:56:57;;;;;;;45.22;15.45;;;;;;;;;;4956327;28;93920;-69
2023/03/26 09:59:32;;;;;;;57.63;14.50;;;;;;;;;;4959411;28;95241;-69
2023/03/26 10:02:03;;;;;;;46.30;14.40;;;;;;;;;;4972288;28;92444;-69
2023/03/26 10:04:37;;;;;;;39.10;13.82;;;;;;;;;;4972502;28;92646;-69
2023/03/26 10:07:22;;;;;;;54.50;14.65;;;;;;;;;;4970718;28;93910;-69
2023/03/26 10:09:55;;;;;;;48.25;15.40;;;;;;;;;;4965032;28;93654;-70
2023/03/26 10:12:38;;;;;;;46.17;14.40;;;;;;;;;;4966493;28;95206;-69
2023/03/26 10:15:05;;;;;;;39.53;13.32;;;;;;;;;;4972295;28;95956;-69
2023/03/26 10:17:37;;;;;;;53.97;13.57;;;;;;;;;;4985938;28;97953;-70
2023/03/26 10:20:23;;;;;;;43.00;14.02;;;;;;;;;;4987118;28;92557;-69
2023/03/26 10:23:08;;;;;;;35.67;12.40;;;;;;;;;;4992661;28;93673;-70
2023/03/26 10:25:35;;;;;;;35.08;12.48;;;;;;;;;;4992213;28;93795;-70
2023/03/26 10:28:04;;;;;;;36.10;11.80;;;;;;;;;;4986671;28;93046;-70
2023/03/26 10:30:31;;;;;;;36.72;11.77;;;;;;;;;;4984685;28;93053;-71
2023/03/26 10:33:15;;;;;;;41.20;12.10;;;;;;;;;;4974289;28;92438;-70
2023/03/26 10:36:00;;;;;;;24.00;10.52;;;;;;;;;;4974095;28;93420;-70
2023/03/26 10:38:36;;;;;;;21.75;9.18;;;;;;;;;;4976957;28;95941;-69
2023/03/26 10:41:24;;;;;;;27.90;10.40;;;;;;;;;;4995098;28;92424;-69
2023/03/26 10:43:50;;;;;;;25.77;9.52;;;;;;;;;;4993959;28;93195;-70
2023/03/26 10:46:30;;;;;;;28.80;9.80;;;;;;;;;;4988852;28;93727;-70
2023/03/26 10:49:13;;;;;;;22.30;8.77;;;;;;;;;;4992390;28;92521;-69
2023/03/26 10:51:47;;;;;;;22.20;7.85;;;;;;;;;;4993860;28;92831;-70
2023/03/26 10:54:19;;;;;;;20.83;7.43;;;;;;;;;;4997701;28;93501;-70
2023/03/26 10:56:48;;;;;;;20.15;7.10;;;;;;;;;;4991131;28;93167;-70
2023/03/26 10:59:15;;;;;;;22.38;7.30;;;;;;;;;;4993065;28;94394;-69
2023/03/26 11:01:48;;;;;;;21.90;6.55;;;;;;;;;;4995127;28;92748;-69
2023/03/26 11:04:23;;;;;;;24.25;6.72;;;;;;;;;;4994009;28;95094;-70
2023/03/26 11:06:50;;;;;;;20.27;6.03;;;;;;;;;;4989322;28;93893;-69
2023/03/26 11:09:21;;;;;;;20.92;6.95;;;;;;;;;;4994299;28;92383;-70
2023/03/26 11:12:06;;;;;;;17.25;6.65;;;;;;;;;;4989758;28;92515;-69
2023/03/26 11:14:58;;;;;;;19.38;6.25;;;;;;;;;;4984174;28;95414;-69
2023/03/26 11:17:27;;;;;;;23.30;6.20;;;;;;;;;;4984080;28;92456;-70
2023/03/26 11:20:15;;;;;;;22.98;6.88;;;;;;;;;;4991951;28;93432;-69
2023/03/26 11:22:49;;;;;;;28.80;5.80;;;;;;;;;;4992724;28;91794;-69
2023/03/26 11:25:18;;;;;;;29.20;5.13;;;;;;;;;;4992718;28;92605;-69
2023/03/26 11:27:56;;;;;;;34.00;6.13;;;;;;;;;;4987380;28;94303;-70
2023/03/26 11:30:41;;;;;;;24.52;6.43;;;;;;;;;;4973109;28;94790;-69
2023/03/26 11:33:10;;;;;;;28.02;5.22;;;;;;;;;;4981329;28;95511;-69
2023/03/26 11:35:39;;;;;;;17.20;4.35;;;;;;;;;;4992029;28;93794;-69
2023/03/26 11:38:13;;;;;;;19.02;4.82;;;;;;;;;;4993444;28;92784;-69
2023/03/26 11:40:41;;;;;;;22.35;4.38;;;;;;;;;;4996400;28;94489;-69
2023/03/26 11:43:10;;;;;;;21.55;4.88;;;;;;;;;;4992548;28;92842;-69
2023/03/26 11:45:39;;;;;;;38.70;5.38;;;;;;;;;;4993128;28;93238;-69
2023/03/26 11:48:18;;;;;;;36.38;5.55;;;;;;;;;;4977991;28;93730;-69
2023/03/26 11:50:46;;;;;;;24.05;4.75;;;;;;;;;;4974288;28;92461;-69
2023/03/26 11:53:16;;;;;;;29.90;5.13;;;;;;;;;;4997920;28;94249;-69
2023/03/26 11:55:49;;;;;;;23.57;5.20;;;;;;;;;;4983302;28;96211;-69
2023/03/26 11:58:24;;;;;;;27.90;4.93;;;;;;;;;;4977927;28;94081;-69
2023/03/26 12:00:51;;;;;;;19.58;4.30;;;;;;;;;;4988914;28;93440;-69
2023/03/26 12:03:19;;;;;;;31.05;4.72;;;;;;;;;;4987140;28;92681;-70
2023/03/26 12:05:48;;;;;;;21.33;4.47;;;;;;;;;;4973332;28;93160;-70
2023/03/26 12:08:18;;;;;;;35.90;4.93;;;;;;;;;;4973422;28;94375;-69
2023/03/26 12:10:49;;;;;;;20.63;4.00;;;;;;;;;;4976803;28;92883;-69
2023/03/26 12:13:33;;;;;;;31.15;5.70;;;;;;;;;;4997165;28;94500;-69
2023/03/26 12:16:03;;;;;;;19.77;4.65;;;;;;;;;;4996834;28;92499;-69
2023/03/26 12:18:30;;;;;;;23.50;4.45;;;;;;;;;;4995021;28;92572;-69
2023/03/26 12:21:08;;;;;;;20.73;4.63;;;;;;;;;;4995000;28;94861;-69
2023/03/26 12:23:42;;;;;;;23.45;5.00;;;;;;;;;;4998174;28;93421;-69
2023/03/26 12:26:19;;;;;;;31.75;5.90;;;;;;;;;;4996177;28;94265;-69
2023/03/26 12:28:48;;;;;;;27.15;5.18;;;;;;;;;;4996383;28;96102;-69
2023/03/26 12:31:17;;;;;;;37.10;5.63;;;;;;;;;;4994885;28;92749;-69
2023/03/26 12:33:45;;;;;;;24.02;4.65;;;;;;;;;;4997136;28;93119;-69
2023/03/26 12:36:16;;;;;;;25.83;4.50;;;;;;;;;;4994813;28;93465;-69
2023/03/26 12:38:44;;;;;;;28.17;4.72;;;;;;;;;;4997518;28;91677;-69
2023/03/26 12:41:35;;;;;;;24.92;4.00;;;;;;;;;;4997197;28;92373;-69
2023/03/26 12:44:25;;;;;;;23.50;4.22;;;;;;;;;;4996314;28;95014;-69
2023/03/26 12:47:14;;;;;;;22.40;4.47;;;;;;;;;;4997743;28;94889;-69
2023/03/26 12:50:01;;;;;;;25.00;4.43;;;;;;;;;;4995334;28;93233;-70
2023/03/26 12:53:05;;;;;;;17.30;4.10;;;;;;;;;;4996800;28;92424;-71
2023/03/26 12:55:35;;;;;;;17.92;3.72;;;;;;;;;;4974511;28;93184;-70
2023/03/26 12:58:11;;;;;;;19.83;3.57;;;;;;;;;;4973927;28;94498;-71
2023/03/26 13:00:47;;;;;;;24.13;3.20;;;;;;;;;;4962271;28;92670;-71
2023/03/26 13:03:19;;;;;;;15.68;3.05;;;;;;;;;;4973156;28;93136;-71
2023/03/26 13:05:52;;;;;;;25.38;3.30;;;;;;;;;;4957961;28;92684;-71
2023/03/26 13:08:29;;;;;;;22.95;3.60;;;;;;;;;;4974318;28;92837;-71
2023/03/26 13:11:07;;;;;;;17.50;3.05;;;;;;;;;;4960779;28;93256;-71
2023/03/26 13:13:40;;;;;;;21.77;3.75;;;;;;;;;;4955309;28;94892;-71
2023/03/26 13:16:20;;;;;;;29.35;3.20;;;;;;;;;;4973852;28;95711;-71
2023/03/26 13:18:52;;;;;;;17.48;3.20;;;;;;;;;;4973881;28;93650;-71
2023/03/26 13:21:39;;;;;;;19.23;3.47;;;;;;;;;;4955886;28;93078;-71
2023/03/26 13:24:08;;;;;;;18.38;3.03;;;;;;;;;;4968186;28;93168;-71
2023/03/26 13:26:49;;;;;;;21.27;3.60;;;;;;;;;;4967595;28;93409;-71
2023/03/26 13:29:21;;;;;;;19.73;3.10;;;;;;;;;;4989209;28;92701;-71
2023/03/26 13:32:07;;;;;;;15.40;3.25;;;;;;;;;;4996637;28;93256;-72
2023/03/26 13:34:33;;;;;;;22.33;2.85;;;;;;;;;;4996967;28;93628;-71
2023/03/26 13:37:12;;;;;;;14.63;2.80;;;;;;;;;;4994277;28;92946;-71
2023/03/26 13:39:44;;;;;;;17.60;2.78;;;;;;;;;;4992431;28;95083;-71
2023/03/26 13:42:32;;;;;;;17.55;2.63;;;;;;;;;;4974700;28;92470;-71
2023/03/26 13:45:01;;;;;;;18.17;3.88;;;;;;;;;;4988574;28;94432;-71
2023/03/26 13:47:33;;;;;;;26.02;3.25;;;;;;;;;;4991476;28;93547;-71
2023/03/26 13:50:18;;;;;;;19.55;2.75;;;;;;;;;;4998585;28;92591;-71
2023/03/26 13:52:47;;;;;;;12.82;2.50;;;;;;;;;;4981348;28;94255;-71
2023/03/26 13:55:17;;;;;;;19.92;2.35;;;;;;;;;;4988149;28;94030;-71
2023/03/26 13:57:50;;;;;;;15.30;2.70;;;;;;;;;;4996330;28;92114;-71
2023/03/26 14:00:25;;;;;;;15.52;2.67;;;;;;;;;;4993518;28;93558;-72
2023/03/26 14:03:02;;;;;;;11.65;2.58;;;;;;;;;;4988989;28;92586;-71
2023/03/26 14:05:38;;;;;;;11.98;2.50;;;;;;;;;;4984290;28;96389;-71
2023/03/26 14:08:11;;;;;;;22.17;2.40;;;;;;;;;;4985042;28;93448;-71
2023/03/26 14:10:42;;;;;;;23.65;3.35;;;;;;;;;;4991809;28;94330;-70
2023/03/26 14:13:17;;;;;;;10.98;2.65;;;;;;;;;;4990098;28;93041;-71
2023/03/26 14:15:53;;;;;;;13.75;2.30;;;;;;;;;;4983433;28;92458;-71
2023/03/26 14:18:29;;;;;;;19.35;3.05;;;;;;;;;;4995829;28;93693;-71
2023/03/26 14:21:04;;;;;;;18.52;3.30;;;;;;;;;;4991542;28;93670;-71
2023/03/26 14:23:36;;;;;;;12.63;2.20;;;;;;;;;;4991015;28;91784;-71
2023/03/26 14:26:09;;;;;;;16.88;2.55;;;;;;;;;;4985189;28;92912;-71
2023/03/26 14:28:35;;;;;;;14.68;1.83;;;;;;;;;;4990298;28;93894;-71
2023/03/26 14:31:02;;;;;;;6.70;1.77;;;;;;;;;;4988461;28;96369;-71
2023/03/26 14:33:34;;;;;;;20.27;2.88;;;;;;;;;;4992537;28;95923;-71
2023/03/26 14:36:19;;;;;;;23.17;3.17;;;;;;;;;;4994767;28;93627;-71
2023/03/26 14:38:46;;;;;;;14.70;2.17;;;;;;;;;;4992636;28;92486;-71
2023/03/26 14:41:21;;;;;;;12.95;2.60;;;;;;;;;;4997124;28;93205;-71
2023/03/26 14:43:50;;;;;;;9.50;1.83;;;;;;;;;;4991443;28;93469;-71
2023/03/26 14:46:36;;;;;;;17.17;3.03;;;;;;;;;;4993165;28;95439;-71
2023/03/26 14:49:23;;;;;;;10.52;1.88;;;;;;;;;;4979995;28;93722;-71